Time;durP1;ratioP1;P1;durP2;ratioP2;P2;SDS_P1;SDS_P2;PMS_P1;PMS_P2;Temp;Humidity;BMP_temperature;BMP_pressure;BME280_temperature;BME280_humidity;BME280_pressure;Samples;Min_cycle;Max_cycle;Signal;HPM_P1;HPM_P2
2022/06/16 00:00:16;;;;;;;;;10.75;10.75;;;;;25.59;36.70;100914.06;5055837;28;45571;-65
2022/06/16 00:02:43;;;;;;;;;9.50;8.00;;;;;25.55;36.98;100905.44;5074444;28;45548;-65
2022/06/16 00:05:11;;;;;;;;;13.50;12.00;;;;;25.57;36.93;100913.34;5057702;28;45370;-66
2022/06/16 00:07:37;;;;;;;;;10.75;9.75;;;;;25.59;36.83;100908.69;5070880;28;45420;-65
2022/06/16 00:10:04;;;;;;;;;12.50;12.50;;;;;25.60;37.17;100915.75;5040830;28;45619;-65
2022/06/16 00:12:29;;;;;;;;;11.25;10.25;;;;;25.54;37.18;100919.03;5059022;28;45453;-66
2022/06/16 00:14:55;;;;;;;;;12.25;12.25;;;;;25.49;36.92;100918.63;5059243;28;45477;-66
2022/06/16 00:17:20;;;;;;;;;10.50;10.50;;;;;25.49;37.01;100924.00;5057900;28;45436;-65
2022/06/16 00:19:46;;;;;;;;;10.75;10.75;;;;;25.46;37.36;100921.59;5041081;28;45358;-65
2022/06/16 00:22:11;;;;;;;;;11.00;10.00;;;;;25.41;37.61;100932.78;5058784;28;46072;-64
2022/06/16 00:24:37;;;;;;;;;12.25;12.00;;;;;25.39;37.53;100929.41;5058929;28;45338;-65
2022/06/16 00:27:02;;;;;;;;;12.00;12.00;;;;;25.38;36.97;100937.63;5076790;28;45456;-67
2022/06/16 00:29:28;;;;;;;;;11.00;10.00;;;;;25.34;37.49;100929.81;5079424;28;45756;-66
2022/06/16 00:31:53;;;;;;;;;12.00;10.25;;;;;25.36;37.42;100940.44;5079240;28;45500;-66
2022/06/16 00:34:18;;;;;;;;;8.50;8.50;;;;;25.33;37.28;100941.59;5079238;28;45481;-65
2022/06/16 00:36:44;;;;;;;;;10.00;10.00;;;;;25.28;37.75;100943.88;5079032;28;46013;-66
2022/06/16 00:39:09;;;;;;;;;9.50;9.50;;;;;25.23;37.94;100945.28;5079142;28;45385;-66
2022/06/16 00:41:54;;;;;;;;;12.00;11.00;;;;;25.13;38.06;100939.84;5091101;27;45812;-65
2022/06/16 00:44:31;;;;;;;;;11.00;11.00;;;;;25.19;38.16;100957.31;5073013;27;45450;-65
2022/06/16 00:46:57;;;;;;;;;10.50;10.50;;;;;25.23;38.14;100954.19;5072644;28;45450;-65
2022/06/16 00:49:24;;;;;;;;;13.25;10.50;;;;;25.24;38.24;100958.59;5072645;28;45699;-65
2022/06/16 00:52:05;;;;;;;;;10.25;10.25;;;;;25.18;38.12;100951.06;5072692;27;45592;-66
2022/06/16 00:54:34;;;;;;;;;13.00;11.75;;;;;25.17;38.27;100965.50;5072600;27;45529;-64
2022/06/16 00:57:08;;;;;;;;;12.75;11.25;;;;;25.15;38.32;100978.28;5069959;28;45529;-65
2022/06/16 00:59:36;;;;;;;;;11.75;11.75;;;;;25.11;38.56;100977.66;5071373;27;45618;-65
2022/06/16 01:02:03;;;;;;;;;11.50;11.50;;;;;25.02;38.58;100980.34;5070988;27;46504;-66
2022/06/16 01:07:16;;;;;;;;;10.00;10.00;;;;;25.00;38.80;100983.16;5071556;27;45601;-66
2022/06/16 01:09:43;;;;;;;;;11.25;11.25;;;;;24.96;39.33;100992.53;5070030;28;45434;-65
2022/06/16 01:15:24;;;;;;;;;13.75;11.25;;;;;24.91;39.68;100994.78;5077660;27;45433;-66
2022/06/16 01:18:07;;;;;;;;;10.50;10.50;;;;;24.85;39.76;101001.56;5081228;27;45529;-65
2022/06/16 01:20:57;;;;;;;;;11.75;10.25;;;;;24.79;39.71;100998.53;5078015;27;45542;-66
2022/06/16 01:23:48;;;;;;;;;8.00;8.00;;;;;24.83;39.54;101008.91;5070646;28;46593;-65
2022/06/16 01:26:13;;;;;;;;;11.25;11.25;;;;;24.85;39.60;101006.94;5070701;27;45516;-66
2022/06/16 01:29:12;;;;;;;;;11.50;11.25;;;;;24.74;40.45;101011.56;5069789;27;45530;-63
2022/06/16 01:31:48;;;;;;;;;12.00;12.00;;;;;24.66;40.14;101002.34;5069971;28;45469;-64
2022/06/16 01:35:08;;;;;;;;;12.50;11.75;;;;;24.60;40.31;101016.31;5070661;27;45480;-65
2022/06/16 01:38:05;;;;;;;;;12.25;12.25;;;;;24.58;40.57;101022.81;5039570;27;45489;-65
2022/06/16 01:40:49;;;;;;;;;14.00;12.25;;;;;24.51;40.57;101018.97;5070567;27;45454;-65
2022/06/16 01:43:28;;;;;;;;;14.00;13.00;;;;;24.54;40.48;101026.78;5070508;27;45480;-66
2022/06/16 01:46:11;;;;;;;;;14.67;14.67;;;;;24.51;40.53;101025.19;5070272;27;45664;-66
2022/06/16 01:48:41;;;;;;;;;15.00;13.25;;;;;24.43;41.01;101028.53;5070226;27;45574;-66
2022/06/16 01:51:16;;;;;;;;;14.75;13.75;;;;;24.45;40.99;101037.34;5069122;27;45482;-67
2022/06/16 01:54:00;;;;;;;;;14.00;13.00;;;;;24.43;40.69;101039.28;5056981;28;45423;-64
2022/06/16 01:56:36;;;;;;;;;13.25;13.25;;;;;24.44;40.89;101040.16;5074469;27;46317;-66
2022/06/16 01:59:11;;;;;;;;;12.00;12.00;;;;;24.53;40.61;101041.19;5077008;27;45482;-65
2022/06/16 02:01:46;;;;;;;;;11.50;11.50;;;;;24.57;40.57;101050.69;5076907;27;45538;-65
2022/06/16 02:04:24;;;;;;;;;12.50;12.50;;;;;24.60;40.39;101048.59;5074235;27;45558;-66
2022/06/16 02:06:55;;;;;;;;;13.75;13.50;;;;;24.64;40.45;101049.19;5056498;28;45418;-65
2022/06/16 02:09:30;;;;;;;;;12.25;11.75;;;;;24.58;40.91;101047.88;5056658;28;45986;-65
2022/06/16 02:12:00;;;;;;;;;13.75;11.75;;;;;24.54;40.64;101054.50;5056609;27;45488;-67
2022/06/16 02:14:52;;;;;;;;;12.75;11.00;;;;;24.49;40.59;101059.44;5056704;28;45569;-66
2022/06/16 02:17:17;;;;;;;;;12.75;12.25;;;;;24.49;40.97;101058.59;5053393;28;46095;-66
2022/06/16 02:19:43;;;;;;;;;12.00;12.00;;;;;24.48;40.90;101054.22;5058718;27;45391;-66
2022/06/16 02:22:08;;;;;;;;;12.75;12.75;;;;;24.42;41.46;101059.09;5076790;27;45514;-65
2022/06/16 02:24:34;;;;;;;;;11.75;11.75;;;;;24.40;40.89;101055.69;5076749;27;46238;-66
2022/06/16 02:27:00;;;;;;;;;12.00;12.00;;;;;24.40;41.07;101058.38;5075101;27;45606;-66
2022/06/16 02:29:37;;;;;;;;;14.75;13.75;;;;;24.41;41.12;101057.38;5075289;27;45545;-67
2022/06/16 02:32:03;;;;;;;;;13.25;12.00;;;;;24.40;41.16;101060.22;5076722;27;45424;-65
2022/06/16 02:35:00;;;;;;;;;12.50;11.25;;;;;24.36;41.32;101056.91;5074771;27;45559;-68
2022/06/16 02:37:44;;;;;;;;;10.25;10.25;;;;;24.38;41.00;101057.63;5076403;27;45576;-64
2022/06/16 02:40:31;;;;;;;;;13.00;12.50;;;;;24.36;41.09;101059.59;5074814;27;45483;-66
2022/06/16 02:43:13;;;;;;;;;11.00;11.00;;;;;24.30;41.33;101064.66;5075283;27;45551;-65
2022/06/16 02:45:49;;;;;;;;;13.25;12.75;;;;;24.27;41.60;101056.88;5076546;27;45461;-65
2022/06/16 02:48:34;;;;;;;;;14.00;12.25;;;;;24.24;41.49;101063.38;5076308;27;45604;-65
2022/06/16 02:51:17;;;;;;;;;11.25;10.75;;;;;24.25;41.37;101067.75;5059659;28;45572;-67
2022/06/16 02:54:08;;;;;;;;;15.00;14.25;;;;;24.21;41.47;101059.09;5056127;28;45360;-67
2022/06/16 02:56:48;;;;;;;;;13.25;12.25;;;;;24.09;42.04;101051.22;5054667;28;45436;-65
2022/06/16 02:59:21;;;;;;;;;15.25;13.50;;;;;24.05;42.13;101064.06;5058515;28;45589;-65
2022/06/16 03:01:48;;;;;;;;;14.75;13.75;;;;;24.01;42.08;101063.47;5076062;27;45484;-64
2022/06/16 03:04:16;;;;;;;;;12.25;12.25;;;;;23.94;42.31;101070.34;5075161;27;45967;-64
2022/06/16 03:06:43;;;;;;;;;13.00;13.00;;;;;23.92;42.33;101066.09;5076014;27;45672;-63
2022/06/16 03:09:09;;;;;;;;;15.00;14.00;;;;;23.93;42.46;101076.69;5075746;27;46586;-66
2022/06/16 03:11:35;;;;;;;;;13.50;12.75;;;;;23.96;42.36;101089.88;5075171;27;45493;-65
2022/06/16 03:14:02;;;;;;;;;15.00;13.67;;;;;23.95;42.25;101082.81;5075829;27;45758;-65
2022/06/16 03:16:28;;;;;;;;;16.33;14.33;;;;;23.96;42.18;101095.25;5076037;27;45629;-65
2022/06/16 03:18:54;;;;;;;;;12.50;12.50;;;;;23.93;42.25;101092.81;5074610;27;47444;-65
2022/06/16 03:21:19;;;;;;;;;16.00;15.00;;;;;23.90;42.33;101085.03;5074054;27;45586;-67
2022/06/16 03:23:45;;;;;;;;;9.25;9.25;;;;;23.88;42.79;101086.13;5071144;27;45521;-65
2022/06/16 03:26:11;;;;;;;;;12.50;11.50;;;;;23.83;42.51;101093.72;5055278;28;45711;-66
2022/06/16 03:28:36;;;;;;;;;13.25;13.25;;;;;23.82;42.70;101092.88;5055051;28;46537;-65
2022/06/16 03:31:02;;;;;;;;;14.25;14.25;;;;;23.84;42.68;101098.97;5054995;28;45422;-67
2022/06/16 03:33:30;;;;;;;;;14.00;12.00;;;;;23.81;42.76;101100.09;5055105;28;45601;-67
2022/06/16 03:35:57;;;;;;;;;13.33;13.33;;;;;23.81;42.79;101105.44;5055193;28;45672;-66
2022/06/16 03:40:51;;;;;;;;;15.50;14.25;;;;;23.82;42.58;101103.63;5075027;27;45430;-65
2022/06/16 03:43:17;;;;;;;;;17.67;15.67;;;;;23.81;42.70;101109.97;5073684;27;45427;-66
2022/06/16 03:45:42;;;;;;;;;14.50;14.50;;;;;23.76;42.93;101104.13;5075216;27;45585;-65
2022/06/16 03:48:08;;;;;;;;;14.00;12.75;;;;;23.72;42.68;101103.53;5074973;27;45464;-66
2022/06/16 03:50:33;;;;;;;;;15.00;13.00;;;;;23.70;43.33;101097.41;5073879;27;45503;-66
2022/06/16 03:52:59;;;;;;;;;13.00;13.00;;;;;23.73;42.72;101094.50;5075179;27;45395;-66
2022/06/16 03:55:25;;;;;;;;;17.33;16.00;;;;;23.72;42.96;101105.34;5074916;27;45449;-65
2022/06/16 03:57:51;;;;;;;;;14.33;14.33;;;;;23.71;42.66;101104.50;5059465;27;45798;-66
2022/06/16 04:00:20;;;;;;;;;13.50;13.50;;;;;23.70;42.99;101123.41;5055975;28;45371;-67
2022/06/16 04:03:59;;;;;;;;;14.00;14.00;;;;;23.65;43.26;101118.41;5054636;28;45493;-67
2022/06/16 04:05:35;;;;;;;;;13.75;13.00;;;;;23.54;43.40;101127.34;5054612;28;45472;-66
2022/06/16 04:08:00;;;;;;;;;14.75;14.75;;;;;23.47;43.63;101127.97;5073232;27;45489;-66
2022/06/16 04:10:26;;;;;;;;;14.00;14.00;;;;;23.48;43.37;101118.94;5074800;27;45517;-67
2022/06/16 04:12:51;;;;;;;;;16.33;15.00;;;;;23.55;43.31;101122.81;5074766;27;45555;-65
2022/06/16 04:15:16;;;;;;;;;14.00;14.00;;;;;23.57;43.02;101126.25;5073916;27;45607;-68
2022/06/16 04:17:42;;;;;;;;;15.33;15.00;;;;;23.56;43.10;101113.78;5072202;27;45592;-66
2022/06/16 04:20:13;;;;;;;;;13.67;13.67;;;;;23.52;43.31;101118.56;5074631;27;45577;-66
2022/06/16 04:22:40;;;;;;;;;15.33;14.00;;;;;23.54;43.05;101121.13;5074452;27;45487;-65
2022/06/16 04:25:08;;;;;;;;;15.00;15.00;;;;;23.55;43.17;101122.81;5056852;28;45711;-65
2022/06/16 04:27:34;;;;;;;;;14.67;13.00;;;;;23.53;43.01;101131.00;5054048;28;46236;-64
2022/06/16 04:29:59;;;;;;;;;12.67;12.67;;;;;23.55;43.01;101139.78;5054435;28;45541;-65
2022/06/16 04:32:24;;;;;;;;;16.00;16.00;;;;;23.55;42.95;101144.31;5072256;28;45563;-65
2022/06/16 04:34:50;;;;;;;;;15.00;15.00;;;;;23.45;43.34;101136.13;5074850;27;45467;-65
2022/06/16 04:37:15;;;;;;;;;14.00;14.00;;;;;23.50;43.19;101141.13;5074494;27;45556;-66
2022/06/16 04:39:41;;;;;;;;;17.00;14.33;;;;;23.48;43.23;101143.97;5074334;27;45456;-65
2022/06/16 04:42:07;;;;;;;;;15.67;15.67;;;;;23.37;43.65;101136.78;5074748;27;45427;-66
2022/06/16 04:44:34;;;;;;;;;16.00;16.00;;;;;23.41;43.53;101142.75;5074882;28;45606;-67
2022/06/16 04:47:01;;;;;;;;;15.00;15.00;;;;;23.38;43.42;101143.84;5056448;28;46634;-66
2022/06/16 04:49:28;;;;;;;;;12.25;12.00;;;;;23.37;43.34;101149.31;5054299;28;45460;-66
2022/06/16 04:51:53;;;;;;;;;15.67;15.67;;;;;23.38;43.58;101149.22;5074458;27;45575;-66
2022/06/16 04:54:18;;;;;;;;;14.00;14.00;;;;;23.41;43.50;101161.53;5072981;27;45424;-65
2022/06/16 04:56:44;;;;;;;;;15.33;14.00;;;;;23.32;43.68;101155.09;5054725;28;45436;-66
2022/06/16 04:59:13;;;;;;;;;17.33;16.00;;;;;23.31;43.97;101168.63;5054041;28;45398;-67
2022/06/16 05:01:39;;;;;;;;;15.33;14.00;;;;;23.32;43.56;101162.25;5054779;28;45550;-65
2022/06/16 05:04:05;;;;;;;;;13.67;13.67;;;;;23.30;43.78;101167.78;5053648;28;45456;-65
2022/06/16 05:06:31;;;;;;;;;14.67;14.67;;;;;23.28;43.78;101174.22;5053345;28;45509;-67
2022/06/16 05:08:56;;;;;;;;;17.33;16.00;;;;;23.32;43.66;101173.00;5053414;28;45503;-65
2022/06/16 05:11:22;;;;;;;;;16.67;16.67;;;;;23.29;43.47;101178.63;5054028;28;45495;-65
2022/06/16 05:13:47;;;;;;;;;18.33;17.00;;;;;23.32;43.82;101189.97;5053845;28;45511;-66
2022/06/16 05:16:12;;;;;;;;;15.33;15.33;;;;;23.29;43.23;101192.91;5068948;27;46243;-66
2022/06/16 05:18:38;;;;;;;;;19.67;18.67;;;;;23.24;43.55;101192.41;5054898;28;45571;-65
2022/06/16 05:21:09;;;;;;;;;16.33;16.00;;;;;23.25;43.47;101201.31;5053988;28;45442;-65
2022/06/16 05:23:35;;;;;;;;;18.33;16.67;;;;;23.18;44.06;101197.41;5052444;28;45632;-65
2022/06/16 05:26:01;;;;;;;;;15.00;14.33;;;;;23.16;43.93;101210.97;5053721;28;45558;-66
2022/06/16 05:28:27;;;;;;;;;17.00;17.00;;;;;23.17;43.79;101215.34;5056661;28;45548;-66
2022/06/16 05:30:52;;;;;;;;;18.33;18.00;;;;;23.14;44.03;101213.75;5057233;28;45483;-65
2022/06/16 05:33:17;;;;;;;;;16.67;15.33;;;;;23.21;43.46;101232.03;5057153;28;45471;-64
2022/06/16 05:35:43;;;;;;;;;13.33;13.33;;;;;23.21;43.51;101227.53;5059959;27;47351;-66
2022/06/16 05:38:08;;;;;;;;;20.00;20.00;;;;;23.22;43.66;101234.63;5077111;27;45490;-66
2022/06/16 05:40:33;;;;;;;;;16.33;16.33;;;;;23.23;43.53;101244.38;5064677;27;45950;-66
2022/06/16 05:42:59;;;;;;;;;16.67;15.00;;;;;23.24;43.75;101253.28;5057141;28;45674;-65
2022/06/16 05:45:24;;;;;;;;;17.33;16.33;;;;;23.20;43.54;101251.81;5056983;28;45515;-65
2022/06/16 05:47:50;;;;;;;;;19.00;17.67;;;;;23.22;43.54;101260.63;5066018;27;45568;-65
2022/06/16 05:50:17;;;;;;;;;19.33;19.33;;;;;23.14;43.87;101259.38;5058428;27;45520;-65
2022/06/16 05:52:44;;;;;;;;;17.00;17.00;;;;;23.08;44.00;101254.50;5061554;27;45532;-66
2022/06/16 05:55:12;;;;;;;;;21.00;19.33;;;;;23.04;43.68;101258.38;5076559;27;45563;-67
2022/06/16 05:57:37;;;;;;;;;20.00;20.00;;;;;23.04;43.68;101253.00;5086676;27;45536;-64
2022/06/16 06:00:05;;;;;;;;;18.00;16.67;;;;;23.09;43.77;101256.19;5097418;27;45512;-64
2022/06/16 06:02:30;;;;;;;;;19.33;18.67;;;;;23.12;43.81;101255.09;5092470;27;45463;-65
2022/06/16 06:04:55;;;;;;;;;19.33;19.33;;;;;23.09;44.12;101249.97;5066223;27;46952;-66
2022/06/16 06:07:21;;;;;;;;;17.00;16.67;;;;;23.13;43.96;101256.78;5062553;27;45581;-64
2022/06/16 06:17:49;;;;;;;;;19.00;17.00;;;;;23.20;43.51;101265.25;5068078;27;45648;-63
2022/06/16 06:20:14;;;;;;;;;19.67;18.33;;;;;23.27;43.35;101275.38;5053797;27;45462;-63
2022/06/16 06:22:40;;;;;;;;;15.00;15.00;;;;;23.31;43.42;101286.72;5067915;27;45703;-59
2022/06/16 06:25:06;;;;;;;;;18.33;18.33;;;;;23.31;43.62;101289.41;5056190;28;47154;-62
2022/06/16 06:27:33;;;;;;;;;17.33;16.33;;;;;23.27;43.73;101282.59;5061190;28;45519;-62
2022/06/16 06:30:00;;;;;;;;;21.00;20.33;;;;;23.33;43.56;101296.38;5084136;27;45490;-61
2022/06/16 06:32:26;;;;;;;;;17.00;16.67;;;;;23.35;43.74;101305.16;5068735;27;45554;-61
2022/06/16 06:34:53;;;;;;;;;18.67;18.67;;;;;23.33;43.48;101292.84;5055957;27;45513;-62
2022/06/16 06:37:22;;;;;;;;;22.00;19.67;;;;;23.37;43.65;101307.72;5059378;27;45468;-61
2022/06/16 06:39:49;;;;;;;;;20.67;19.00;;;;;23.39;43.55;101305.75;5055530;28;45461;-64
2022/06/16 06:42:14;;;;;;;;;22.00;22.00;;;;;23.46;43.23;101311.53;5060817;28;45639;-61
2022/06/16 06:44:39;;;;;;;;;21.00;20.33;;;;;23.48;43.38;101314.91;5055571;28;45672;-62
2022/06/16 06:47:05;;;;;;;;;21.33;21.33;;;;;23.55;42.79;101311.63;5058235;27;45523;-62
2022/06/16 06:49:31;;;;;;;;;20.67;19.67;;;;;23.64;42.95;101322.63;5062777;27;45461;-62
2022/06/16 06:51:56;;;;;;;;;17.67;17.33;;;;;23.67;42.64;101314.31;5075035;27;45550;-62
2022/06/16 06:54:22;;;;;;;;;21.00;19.67;;;;;23.67;42.95;101315.22;5057936;27;46388;-62
2022/06/16 06:56:49;;;;;;;;;22.67;22.67;;;;;23.63;42.81;101321.78;5055710;28;45579;-62
2022/06/16 06:59:18;;;;;;;;;21.33;20.67;;;;;23.66;42.79;101315.31;5066940;27;46107;-62
2022/06/16 07:01:45;;;;;;;;;23.00;23.00;;;;;23.72;42.25;101312.16;5073321;27;45454;-63
2022/06/16 07:04:11;;;;;;;;;23.00;23.00;;;;;23.75;41.91;101320.84;5055571;28;45492;-63
2022/06/16 07:06:38;;;;;;;;;21.33;21.33;;;;;23.81;42.11;101323.03;5058950;27;45659;-63
2022/06/16 07:09:04;;;;;;;;;20.67;19.33;;;;;23.86;42.15;101327.19;5068924;27;45559;-62
2022/06/16 07:11:29;;;;;;;;;19.67;19.67;;;;;23.87;42.08;101331.59;5069060;28;45567;-63
2022/06/16 07:13:55;;;;;;;;;23.33;22.33;;;;;23.90;41.97;101332.19;5069309;27;46763;-63
2022/06/16 07:16:23;;;;;;;;;20.33;19.00;;;;;23.96;41.80;101344.28;5071415;28;45482;-63
2022/06/16 07:18:49;;;;;;;;;23.00;21.67;;;;;24.05;41.59;101345.41;5055112;28;45520;-62
2022/06/16 07:21:15;;;;;;;;;21.33;20.33;;;;;24.13;41.44;101353.69;5059332;27;45574;-62
2022/06/16 07:23:42;;;;;;;;;24.50;21.50;;;;;24.21;41.36;101356.63;5070637;27;46091;-63
2022/06/16 07:26:07;;;;;;;;;22.00;20.33;;;;;24.27;40.88;101358.81;5056859;27;45418;-62
2022/06/16 07:28:33;;;;;;;;;20.33;20.33;;;;;24.35;40.74;101352.81;5054846;28;45416;-62
2022/06/16 07:30:58;;;;;;;;;19.33;19.33;;;;;24.35;40.48;101348.28;5074065;27;45667;-63
2022/06/16 07:33:24;;;;;;;;;21.67;20.67;;;;;24.47;40.25;101354.50;5055089;28;45584;-63
2022/06/16 07:35:53;;;;;;;;;19.67;19.67;;;;;24.48;40.05;101363.44;5053283;28;45478;-62
2022/06/16 07:38:20;;;;;;;;;20.00;20.00;;;;;24.50;39.81;101358.78;5058785;28;45472;-63
2022/06/16 07:40:45;;;;;;;;;23.00;22.67;;;;;24.45;39.55;101367.25;5058057;27;45572;-63
2022/06/16 07:43:10;;;;;;;;;18.67;16.67;;;;;24.42;39.30;101365.63;5054777;28;46049;-63
2022/06/16 07:45:38;;;;;;;;;22.67;20.67;;;;;24.44;39.68;101370.91;5053553;28;45443;-63
2022/06/16 07:48:05;;;;;;;;;20.00;20.00;;;;;24.45;39.55;101369.94;5054573;28;45575;-63
2022/06/16 07:50:32;;;;;;;;;20.33;17.67;;;;;24.43;39.08;101369.16;5053048;28;45574;-63
2022/06/16 07:52:57;;;;;;;;;22.00;19.67;;;;;24.47;38.43;101373.31;5054721;28;47056;-63
2022/06/16 07:55:22;;;;;;;;;18.00;18.00;;;;;24.41;38.69;101365.75;5054873;28;45430;-63
2022/06/16 07:57:50;;;;;;;;;19.33;18.67;;;;;24.35;38.07;101363.56;5053375;28;45474;-62
2022/06/16 08:00:22;;;;;;;;;16.00;16.00;;;;;24.36;38.48;101366.09;5054086;28;45429;-63
2022/06/16 08:02:48;;;;;;;;;18.00;16.67;;;;;24.43;38.30;101363.78;5054650;28;45644;-62
2022/06/16 08:05:23;;;;;;;;;15.33;13.67;;;;;24.49;38.43;101365.16;5054615;28;45498;-62
2022/06/16 08:07:49;;;;;;;;;19.00;15.67;;;;;24.49;37.58;101371.38;5040601;28;45546;-63
2022/06/16 08:10:18;;;;;;;;;18.33;16.33;;;;;24.53;37.47;101372.84;5054183;28;45672;-61
2022/06/16 08:12:43;;;;;;;;;16.67;15.00;;;;;24.53;37.59;101370.16;5069533;27;47691;-62
2022/06/16 08:15:10;;;;;;;;;16.00;16.00;;;;;24.58;37.66;101367.94;5054410;28;45521;-62
2022/06/16 08:17:39;;;;;;;;;14.50;14.50;;;;;24.64;36.94;101372.81;5054650;28;45482;-63
2022/06/16 08:20:07;;;;;;;;;14.50;14.50;;;;;24.66;37.00;101372.66;5053773;28;45778;-63
2022/06/16 08:22:34;;;;;;;;;15.75;15.75;;;;;24.69;37.33;101372.44;5054967;27;45502;-62
2022/06/16 08:24:59;;;;;;;;;13.75;13.00;;;;;24.73;36.60;101378.41;5065676;28;45555;-62
2022/06/16 08:27:32;;;;;;;;;15.75;15.75;;;;;24.71;35.95;101370.44;5053954;28;45414;-62
2022/06/16 08:29:59;;;;;;;;;15.75;14.50;;;;;24.75;35.87;101379.16;5059212;28;45552;-63
2022/06/16 08:32:25;;;;;;;;;12.75;12.75;;;;;24.74;35.28;101364.81;5061307;28;46338;-63
2022/06/16 08:34:50;;;;;;;;;14.75;12.25;;;;;24.79;35.84;101373.34;5055656;28;45498;-62
2022/06/16 08:37:17;;;;;;;;;16.00;16.00;;;;;24.87;36.30;101367.34;5063641;27;45521;-62
2022/06/16 08:39:43;;;;;;;;;14.25;14.25;;;;;24.90;36.25;101359.00;5058231;27;45550;-62
2022/06/16 08:42:14;;;;;;;;;16.25;13.00;;;;;24.98;34.10;101372.69;5066217;27;45504;-63
2022/06/16 08:45:10;;;;;;;;;13.00;12.25;;;;;25.01;34.17;101367.06;5072878;27;45538;-63
2022/06/16 08:47:48;;;;;;;;;13.50;12.50;;;;;25.03;33.84;101365.06;5051443;28;45527;-63
2022/06/16 08:50:35;;;;;;;;;17.00;17.00;;;;;25.07;34.26;101365.69;5044581;27;45503;-62
2022/06/16 08:53:39;;;;;;;;;14.25;14.25;;;;;25.08;33.94;101378.16;5073959;27;46407;-62
2022/06/16 08:56:27;;;;;;;;;12.00;12.00;;;;;25.10;34.59;101378.88;5056202;28;45546;-63
2022/06/16 08:59:02;;;;;;;;;11.00;11.00;;;;;25.13;33.95;101375.94;5053497;28;45579;-63
2022/06/16 09:01:36;;;;;;;;;15.00;14.00;;;;;25.19;33.76;101375.44;5058022;28;45462;-63
2022/06/16 09:04:31;;;;;;;;;13.75;12.25;;;;;25.23;34.48;101376.03;5056376;28;45766;-63
2022/06/16 09:07:37;;;;;;;;;14.25;12.25;;;;;25.28;34.18;101371.97;5061480;27;45498;-63
2022/06/16 09:10:27;;;;;;;;;14.00;12.50;;;;;25.34;34.14;101373.28;5069111;27;45528;-64
2022/06/16 09:13:23;;;;;;;;;12.75;12.25;;;;;25.38;33.49;101381.94;5064454;27;45587;-62
2022/06/16 09:16:10;;;;;;;;;13.75;11.50;;;;;25.38;33.37;101376.56;5061423;27;46627;-62
2022/06/16 09:18:51;;;;;;;;;11.75;11.75;;;;;25.35;32.74;101367.75;5059032;27;45422;-62
2022/06/16 09:21:40;;;;;;;;;12.25;12.25;;;;;25.37;32.86;101362.25;5055828;28;45418;-63
2022/06/16 09:24:09;;;;;;;;;14.00;13.25;;;;;25.42;32.93;101369.94;5061676;27;45568;-62
2022/06/16 09:27:03;;;;;;;;;17.50;12.50;;;;;25.49;32.93;101377.34;5072581;27;46501;-62
2022/06/16 09:29:42;;;;;;;;;14.50;13.00;;;;;25.52;32.81;101379.78;5060722;27;45492;-63
2022/06/16 09:32:23;;;;;;;;;12.25;11.50;;;;;25.58;32.29;101381.09;5065190;27;45581;-62
2022/06/16 09:35:09;;;;;;;;;12.75;11.75;;;;;25.59;32.49;101373.88;5057227;28;45727;-63
2022/06/16 09:37:45;;;;;;;;;13.50;12.00;;;;;25.64;32.12;101368.94;5070078;27;45517;-63
2022/06/16 09:40:27;;;;;;;;;11.00;11.00;;;;;25.66;31.64;101359.72;5063581;28;45513;-63
2022/06/16 09:43:05;;;;;;;;;14.50;14.00;;;;;25.69;31.31;101362.16;5066292;27;45556;-63
2022/06/16 09:45:41;;;;;;;;;11.25;11.25;;;;;25.71;31.26;101359.31;5071696;27;45547;-63
2022/06/16 09:48:13;;;;;;;;;12.25;11.25;;;;;25.73;31.15;101351.94;5063902;27;46203;-63
2022/06/16 09:50:55;;;;;;;;;13.00;12.00;;;;;25.78;31.29;101347.88;5077270;27;45453;-63
2022/06/16 09:53:35;;;;;;;;;10.25;10.00;;;;;25.81;31.23;101344.03;5074878;27;45645;-63
2022/06/16 09:56:07;;;;;;;;;9.25;9.25;;;;;25.86;31.26;101346.38;5071647;27;45468;-62
2022/06/16 09:58:50;;;;;;;;;9.50;9.00;;;;;25.83;30.59;101344.78;5071175;27;46382;-62
2022/06/16 10:01:19;;;;;;;;;9.75;9.50;;;;;25.87;30.97;101348.06;5056255;28;45492;-61
2022/06/16 10:04:05;;;;;;;;;11.00;11.00;;;;;25.85;30.27;101350.91;5059593;27;45481;-61
2022/06/16 10:06:42;;;;;;;;;10.00;9.00;;;;;25.88;30.02;101352.50;5055183;28;45513;-61
2022/06/16 10:09:22;;;;;;;;;10.50;10.50;;;;;25.93;30.76;101358.34;5054859;28;46608;-62
2022/06/16 10:12:27;;;;;;;;;8.50;8.50;;;;;25.95;28.73;101359.03;5055641;28;45411;-61
2022/06/16 10:15:19;;;;;;;;;11.00;9.50;;;;;25.90;28.85;101363.97;5055643;28;45439;-61
2022/06/16 10:17:47;;;;;;;;;9.25;8.00;;;;;25.90;29.53;101355.88;5055866;27;45473;-61
2022/06/16 10:20:15;;;;;;;;;9.50;8.00;;;;;25.93;29.29;101350.25;5055609;28;46638;-61
2022/06/16 10:22:51;;;;;;;;;49.33;41.67;;;;;25.96;29.38;101353.50;5055748;28;45415;-65
2022/06/16 10:25:25;;;;;;;;;20.00;18.00;;;;;26.02;29.65;101345.88;5056297;28;45450;-61
2022/06/16 10:28:00;;;;;;;;;23.33;23.00;;;;;26.03;29.80;101348.41;5056250;28;45513;-62
2022/06/16 10:30:39;;;;;;;;;20.00;18.67;;;;;26.05;29.51;101349.13;5055913;28;46422;-60
2022/06/16 10:33:16;;;;;;;;;12.00;12.00;;;;;26.07;29.46;101352.56;5055802;28;45455;-60
2022/06/16 10:36:13;;;;;;;;;11.75;10.75;;;;;26.08;29.57;101343.47;5055661;28;45493;-60
2022/06/16 10:38:45;;;;;;;;;16.00;14.00;;;;;26.13;29.63;101345.75;5055325;28;45838;-62
2022/06/16 10:41:29;;;;;;;;;11.50;10.00;;;;;26.14;29.36;101340.25;5055083;28;46512;-60
2022/06/16 10:43:58;;;;;;;;;11.00;11.00;;;;;26.16;29.31;101342.78;5054907;27;45518;-62
2022/06/16 10:46:30;;;;;;;;;9.50;8.50;;;;;26.14;28.91;101337.56;5072839;27;45521;-61
2022/06/16 10:49:00;;;;;;;;;9.00;8.75;;;;;26.14;27.24;101332.16;5075185;27;45488;-60
2022/06/16 10:51:29;;;;;;;;;7.75;7.75;;;;;26.18;27.59;101343.50;5071701;27;45528;-59
2022/06/16 10:54:21;;;;;;;;;10.50;9.00;;;;;26.22;26.31;101340.41;5075368;27;45517;-61
2022/06/16 10:56:47;;;;;;;;;13.75;12.00;;;;;26.28;27.80;101335.47;5075689;27;45440;-62
2022/06/16 10:59:20;;;;;;;;;11.75;10.00;;;;;26.35;28.66;101337.44;5067504;27;45583;-67
2022/06/16 11:01:55;;;;;;;;;8.75;8.75;;;;;26.36;28.36;101333.75;5059547;27;46084;-65
2022/06/16 11:04:23;;;;;;;;;12.00;10.00;;;;;26.41;27.89;101327.94;5065113;27;45516;-65
2022/06/16 11:06:53;;;;;;;;;7.00;7.00;;;;;26.44;28.22;101327.69;5062699;27;45520;-65
2022/06/16 11:09:27;;;;;;;;;9.00;9.00;;;;;26.48;27.49;101326.38;5078835;27;45708;-70
2022/06/16 11:11:52;;;;;;;;;8.00;8.00;;;;;26.54;27.27;101335.81;5067577;27;45353;-65
2022/06/16 11:14:40;;;;;;;;;11.25;11.25;;;;;26.58;27.46;101345.34;5069253;28;45441;-65
2022/06/16 11:17:40;;;;;;;;;12.75;11.00;;;;;26.57;27.99;101339.09;5073048;28;45548;-66
2022/06/16 11:20:16;;;;;;;;;11.25;11.00;;;;;26.64;28.03;101339.38;5068224;27;45603;-63
2022/06/16 11:22:45;;;;;;;;;7.75;7.50;;;;;26.69;28.10;101349.75;5074542;28;46489;-66
2022/06/16 11:25:17;;;;;;;;;11.75;11.00;;;;;26.73;28.24;101346.59;5064530;28;45541;-66
2022/06/16 11:27:56;;;;;;;;;11.00;10.50;;;;;26.76;28.17;101354.44;5068260;28;45530;-67
2022/06/16 11:30:36;;;;;;;;;10.75;9.50;;;;;26.82;29.10;101355.72;5076247;27;45437;-66
2022/06/16 11:33:04;;;;;;;;;12.25;11.25;;;;;26.84;28.83;101351.88;5056077;28;46089;-66
2022/06/16 11:35:41;;;;;;;;;10.25;10.25;;;;;26.87;28.71;101346.19;5061537;27;45537;-63
2022/06/16 11:38:20;;;;;;;;;11.00;11.00;;;;;26.90;28.56;101336.13;5086030;27;45453;-66
2022/06/16 11:40:55;;;;;;;;;9.25;9.25;;;;;26.92;28.55;101339.50;5074730;27;45441;-72
2022/06/16 11:43:35;;;;;;;;;10.25;9.00;;;;;26.94;28.66;101342.94;5067949;27;45574;-73
2022/06/16 11:46:43;;;;;;;;;8.50;7.25;;;;;26.94;27.76;101335.66;5058248;27;45903;-71
2022/06/16 11:49:28;;;;;;;;;11.50;11.50;;;;;26.92;27.78;101329.59;5012300;28;45530;-72